Time;durP1;ratioP1;P1;durP2;ratioP2;P2;SDS_P1;SDS_P2;PMS_P1;PMS_P2;Temp;Humidity;BMP_temperature;BMP_pressure;BME280_temperature;BME280_humidity;BME280_pressure;Samples;Min_cycle;Max_cycle;Signal;HPM_P1;HPM_P2
2024/01/19 00:00:10;;;;;;;35.70;15.90;;;;;;;-0.40;77.71;97751.39;105743;1251;98414;-71
2024/01/19 00:02:57;;;;;;;36.00;16.80;;;;;;;-0.41;78.24;97761.04;105757;1256;96570;-71
2024/01/19 00:05:23;;;;;;;35.30;17.70;;;;;;;-0.40;77.90;97767.80;105400;1257;96667;-71
2024/01/19 00:07:50;;;;;;;40.90;19.90;;;;;;;-0.44;78.36;97768.84;105601;1256;96567;-71
2024/01/19 00:10:16;;;;;;;32.30;15.90;;;;;;;-0.46;78.01;97774.35;105323;1257;98369;-71
2024/01/19 00:12:43;;;;;;;36.60;17.80;;;;;;;-0.44;78.26;97787.34;105731;1250;97514;-71
2024/01/19 00:15:09;;;;;;;38.70;17.00;;;;;;;-0.42;78.31;97803.76;105727;1251;109681;-72
2024/01/19 00:17:36;;;;;;;34.40;16.40;;;;;;;-0.43;77.95;97814.43;105838;1250;96593;-71
2024/01/19 00:20:04;;;;;;;44.50;19.60;;;;;;;-0.47;78.06;97824.90;105696;1251;96599;-70
2024/01/19 00:22:30;;;;;;;36.90;16.70;;;;;;;-0.51;77.94;97842.66;105531;1257;97940;-72
2024/01/19 00:24:56;;;;;;;32.20;14.50;;;;;;;-0.53;78.01;97851.81;106175;1254;97116;-71
2024/01/19 00:27:23;;;;;;;37.80;18.80;;;;;;;-0.56;77.94;97857.36;106182;1255;97894;-72
2024/01/19 00:29:49;;;;;;;38.60;17.80;;;;;;;-0.60;78.07;97863.64;105674;1255;107117;-71
2024/01/19 00:32:16;;;;;;;;;;;;;;;-0.63;78.20;97873.20;105798;1257;97598;-71
2024/01/19 00:34:43;;;;;;;31.80;15.70;;;;;;;-0.65;77.94;97882.35;105512;1257;97889;-70
2024/01/19 00:37:09;;;;;;;27.90;13.10;;;;;;;-0.67;78.09;97884.31;105705;1255;96663;-73
2024/01/19 00:39:36;;;;;;;36.90;15.40;;;;;;;-0.67;78.11;97882.42;105590;1256;97510;-71
2024/01/19 00:42:02;;;;;;;32.60;14.40;;;;;;;-0.68;78.48;97881.27;105998;1257;96414;-71
2024/01/19 00:44:29;;;;;;;;;;;;;;;-0.69;78.46;97891.73;105636;1256;96613;-71
2024/01/19 00:46:55;;;;;;;33.20;15.10;;;;;;;-0.69;78.43;97901.82;105846;1252;97054;-71
2024/01/19 00:49:22;;;;;;;39.10;16.10;;;;;;;-0.67;78.36;97905.22;105861;1256;97061;-71
2024/01/19 00:51:49;;;;;;;41.10;20.00;;;;;;;-0.66;78.22;97911.95;105784;1257;96671;-71
2024/01/19 00:54:15;;;;;;;34.80;16.30;;;;;;;-0.66;78.11;97914.60;105402;1251;96677;-71
2024/01/19 00:56:42;;;;;;;39.00;16.70;;;;;;;-0.67;78.03;97918.96;105704;1257;96619;-70
2024/01/19 00:59:08;;;;;;;31.20;15.80;;;;;;;-0.68;78.38;97921.09;105800;1255;96603;-71
2024/01/19 01:01:34;;;;;;;34.80;16.20;;;;;;;-0.72;78.20;97935.23;105775;1255;96666;-71
2024/01/19 01:04:02;;;;;;;35.60;17.20;;;;;;;-0.76;78.59;97942.36;105796;1251;96575;-71
2024/01/19 01:06:29;;;;;;;39.00;17.20;;;;;;;-0.78;78.34;97946.30;105617;1256;109809;-71
2024/01/19 01:08:59;;;;;;;29.00;15.10;;;;;;;-0.80;78.27;97948.10;105772;1255;96606;-71
2024/01/19 01:11:27;;;;;;;35.60;17.90;;;;;;;-0.79;78.09;97959.04;105356;1254;96645;-71
2024/01/19 01:13:54;;;;;;;36.70;17.00;;;;;;;-0.80;78.15;97965.17;105604;1256;96578;-71
2024/01/19 01:16:20;;;;;;;34.80;16.80;;;;;;;-0.80;78.20;97969.70;105651;1254;96603;-71
2024/01/19 01:18:47;;;;;;;44.00;18.30;;;;;;;-0.81;78.24;97969.05;105394;1257;96698;-71
2024/01/19 01:21:13;;;;;;;38.80;18.60;;;;;;;-0.81;78.40;97965.90;105554;1257;97261;-70
2024/01/19 01:23:40;;;;;;;40.00;18.40;;;;;;;-0.84;78.34;97966.21;105752;1250;98639;-70
2024/01/19 01:26:06;;;;;;;;;;;;;;;-0.86;78.25;97973.28;105887;1252;96607;-72
2024/01/19 01:28:33;;;;;;;28.20;13.60;;;;;;;-0.90;78.22;97981.80;105683;1256;100312;-71
2024/01/19 01:30:59;;;;;;;33.60;16.90;;;;;;;-0.93;78.23;97982.09;105731;1251;97042;-72
2024/01/19 01:33:26;;;;;;;30.80;13.80;;;;;;;-0.93;78.49;97976.33;105584;1257;97472;-71
2024/01/19 01:35:53;;;;;;;31.90;15.60;;;;;;;-0.92;78.23;97982.91;105853;1256;96987;-70
2024/01/19 01:38:19;;;;;;;36.00;16.20;;;;;;;-0.95;78.20;97993.83;105821;1251;96762;-71
2024/01/19 01:40:46;;;;;;;30.20;15.10;;;;;;;-0.93;78.23;97996.71;105833;1257;97422;-71
2024/01/19 01:43:22;;;;;;;29.70;15.50;;;;;;;-0.92;78.39;97998.73;105890;1255;96602;-71
2024/01/19 01:45:49;;;;;;;36.90;16.90;;;;;;;-0.92;78.51;97999.77;105830;1256;96913;-71
2024/01/19 01:48:16;;;;;;;31.00;14.60;;;;;;;-0.91;78.44;98008.12;105474;1268;96685;-71
2024/01/19 01:50:43;;;;;;;30.80;15.50;;;;;;;-0.91;78.29;98014.89;105663;1256;96613;-71
2024/01/19 01:53:11;;;;;;;;;;;;;;;-0.93;78.16;98023.15;105544;1257;96511;-72
2024/01/19 01:55:37;;;;;;;27.90;14.50;;;;;;;-0.95;78.45;98025.16;105797;1250;97776;-70
2024/01/19 01:58:04;;;;;;;25.30;14.30;;;;;;;-0.95;78.38;98029.30;105558;1254;96586;-70
2024/01/19 02:00:32;;;;;;;27.30;14.50;;;;;;;-0.94;78.48;98031.23;105686;1257;96587;-71
2024/01/19 02:03:02;;;;;;;31.90;15.00;;;;;;;-0.94;78.35;98032.77;106907;1254;96588;-70
2024/01/19 02:05:29;;;;;;;31.30;15.20;;;;;;;-0.92;78.41;98041.05;105883;1264;107695;-71
2024/01/19 02:07:56;;;;;;;24.10;12.10;;;;;;;-0.92;78.30;98043.63;105551;1254;96574;-71
2024/01/19 02:10:23;;;;;;;31.50;15.60;;;;;;;-0.92;78.26;98046.98;105569;1257;97122;-71
2024/01/19 02:12:50;;;;;;;27.10;14.30;;;;;;;-0.92;78.49;98055.83;105477;1264;96615;-71
2024/01/19 02:15:18;;;;;;;;;;;;;;;-0.92;78.37;98067.66;105634;1256;98455;-71
2024/01/19 02:17:45;;;;;;;30.30;14.50;;;;;;;-0.93;78.47;98077.81;105532;1257;96722;-69
2024/01/19 02:20:11;;;;;;;28.00;12.70;;;;;;;-0.93;78.66;98077.81;105419;1273;97896;-71
2024/01/19 02:22:39;;;;;;;26.00;13.00;;;;;;;-0.93;78.57;98079.36;105521;1266;97562;-70
2024/01/19 02:25:06;;;;;;;29.50;13.70;;;;;;;-0.93;78.52;98084.57;105519;1255;97347;-71
2024/01/19 02:27:32;;;;;;;;;;;;;;;-0.92;78.63;98079.86;105621;1254;96591;-71
2024/01/19 02:29:59;;;;;;;25.00;10.60;;;;;;;-0.92;78.74;98085.59;105608;1251;97183;-71
2024/01/19 02:32:25;;;;;;;28.10;13.40;;;;;;;-0.90;78.65;98095.10;105571;1257;97504;-71
2024/01/19 02:34:52;;;;;;;21.30;10.90;;;;;;;-0.92;78.62;98100.88;105481;1266;97937;-72
2024/01/19 02:37:19;;;;;;;39.50;17.10;;;;;;;-0.92;78.58;98097.98;105423;1257;107668;-71
2024/01/19 02:39:46;;;;;;;25.60;14.10;;;;;;;-0.93;78.75;98099.91;105321;1260;96640;-71
2024/01/19 02:42:12;;;;;;;24.20;12.70;;;;;;;-0.94;78.81;98110.40;105889;1251;96612;-71
2024/01/19 02:44:38;;;;;;;26.70;11.80;;;;;;;-0.94;78.61;98122.41;105443;1254;96679;-71
2024/01/19 02:47:05;;;;;;;24.00;12.80;;;;;;;-0.94;78.60;98126.08;106020;1257;97076;-70
2024/01/19 02:49:31;;;;;;;24.10;11.50;;;;;;;-0.95;78.48;98132.38;105686;1256;97940;-71
2024/01/19 02:51:58;;;;;;;24.40;11.40;;;;;;;-0.94;78.72;98139.30;105794;1270;96586;-71
2024/01/19 02:54:24;;;;;;;25.50;13.60;;;;;;;-0.96;78.51;98147.89;105639;1257;96658;-71
2024/01/19 02:56:51;;;;;;;19.50;10.20;;;;;;;-0.96;78.55;98153.29;105925;1257;97535;-71
2024/01/19 02:59:17;;;;;;;21.60;11.30;;;;;;;-0.98;78.47;98153.71;105568;1266;97519;-71
2024/01/19 03:01:44;;;;;;;21.60;11.10;;;;;;;-1.01;78.66;98148.59;105516;1251;97412;-71
2024/01/19 03:04:10;;;;;;;23.30;12.00;;;;;;;-0.99;78.55;98144.71;105767;1256;98256;-71
2024/01/19 03:06:37;;;;;;;22.60;10.30;;;;;;;-0.97;78.76;98143.23;105868;1251;97087;-71
2024/01/19 03:09:03;;;;;;;23.60;11.60;;;;;;;-0.98;78.55;98139.08;105672;1257;96593;-71
2024/01/19 03:11:30;;;;;;;23.80;11.50;;;;;;;-0.98;78.49;98144.15;105783;1254;96497;-71
2024/01/19 03:13:56;;;;;;;;;;;;;;;-0.95;78.70;98148.52;105797;1251;96583;-70
2024/01/19 03:16:23;;;;;;;18.80;9.90;;;;;;;-0.94;78.56;98145.70;105920;1255;97934;-71
2024/01/19 03:18:49;;;;;;;20.30;11.20;;;;;;;-0.92;78.61;98149.98;105946;1257;98158;-71
2024/01/19 03:21:16;;;;;;;23.40;12.10;;;;;;;-0.90;78.63;98149.05;105875;1252;96574;-71
2024/01/19 03:23:42;;;;;;;21.40;10.40;;;;;;;-0.88;78.49;98151.92;105401;1264;96587;-71
2024/01/19 03:26:08;;;;;;;23.80;12.10;;;;;;;-0.85;78.53;98161.73;105810;1257;96539;-70
2024/01/19 03:28:35;;;;;;;24.60;12.40;;;;;;;-0.85;78.58;98159.64;105610;1257;96961;-72
2024/01/19 03:31:01;;;;;;;28.80;13.10;;;;;;;-0.83;78.80;98161.31;105560;1256;97524;-70
2024/01/19 03:33:28;;;;;;;;;;;;;;;-0.82;78.56;98164.76;105756;1257;96698;-71
2024/01/19 03:35:54;;;;;;;23.00;10.80;;;;;;;-0.82;78.67;98159.52;105766;1255;96718;-71
2024/01/19 03:38:22;;;;;;;22.80;11.40;;;;;;;-0.80;78.58;98159.10;105746;1257;97915;-70
2024/01/19 03:40:49;;;;;;;22.40;12.70;;;;;;;-0.85;78.60;98153.37;105688;1254;96824;-69
2024/01/19 03:43:15;;;;;;;24.20;13.10;;;;;;;-0.89;78.47;98147.09;105615;1264;96591;-71
2024/01/19 03:45:42;;;;;;;25.60;14.90;;;;;;;-0.91;78.32;98159.52;105597;1257;96674;-71
2024/01/19 03:48:09;;;;;;;29.10;14.50;;;;;;;-0.91;78.38;98177.81;105852;1256;96579;-70
2024/01/19 03:50:36;;;;;;;24.90;12.70;;;;;;;-0.90;78.32;98180.55;105548;1256;97240;-71
2024/01/19 03:53:03;;;;;;;26.60;12.80;;;;;;;-0.90;78.51;98192.05;105735;1257;97122;-71
2024/01/19 03:55:29;;;;;;;26.60;12.50;;;;;;;-0.92;78.41;98197.86;105784;1254;97035;-73
2024/01/19 03:57:56;;;;;;;23.30;11.60;;;;;;;-0.93;78.45;98205.39;105682;1257;96689;-72
2024/01/19 04:00:22;;;;;;;26.10;12.80;;;;;;;-0.94;78.43;98211.02;105620;1256;97791;-74
2024/01/19 04:02:49;;;;;;;34.30;15.50;;;;;;;-0.97;78.41;98213.20;105400;1251;97726;-71
2024/01/19 04:05:16;;;;;;;28.90;13.60;;;;;;;-0.98;78.43;98229.24;105881;1256;96587;-72
2024/01/19 04:07:42;;;;;;;23.00;12.00;;;;;;;-0.98;78.37;98255.18;105630;1257;96610;-70
2024/01/19 04:10:09;;;;;;;25.00;13.10;;;;;;;-0.97;78.49;98267.52;105969;1251;96510;-71
2024/01/19 04:12:35;;;;;;;29.40;13.50;;;;;;;-0.97;78.42;98261.41;105486;1251;96535;-71
2024/01/19 04:15:04;;;;;;;29.10;12.80;;;;;;;-0.97;78.31;98265.59;105729;1256;110358;-71
2024/01/19 04:17:31;;;;;;;27.60;13.60;;;;;;;-0.97;78.29;98274.81;105506;1257;96619;-72
2024/01/19 04:19:57;;;;;;;;;;;;;;;-0.98;78.27;98288.58;105819;1256;96557;-70
2024/01/19 04:22:25;;;;;;;21.70;12.50;;;;;;;-1.01;78.30;98301.08;105653;1257;96600;-69
2024/01/19 04:24:52;;;;;;;27.40;12.50;;;;;;;-1.03;78.31;98298.20;105617;1257;96567;-69
2024/01/19 04:27:18;;;;;;;24.80;12.40;;;;;;;-1.04;78.24;98289.01;108687;1255;96305;-70
2024/01/19 04:29:45;;;;;;;24.00;11.70;;;;;;;-1.03;78.61;98288.98;108822;1255;94407;-70
2024/01/19 04:32:11;;;;;;;23.10;12.40;;;;;;;-1.02;78.43;98295.02;108731;1251;94565;-70
2024/01/19 04:34:38;;;;;;;24.10;12.00;;;;;;;-1.02;78.36;98294.66;108789;1251;94621;-70
2024/01/19 04:37:04;;;;;;;;;;;;;;;-0.99;78.20;98295.98;107356;1254;96605;-70
2024/01/19 04:42:16;;;;;;;19.00;9.30;;;;;;;-1.02;78.16;98310.16;105418;1257;97011;-70
2024/01/19 04:44:42;;;;;;;20.10;10.20;;;;;;;-1.05;78.16;98311.30;105571;1264;97921;-70
2024/01/19 04:47:09;;;;;;;25.00;12.00;;;;;;;-1.06;78.39;98321.77;106042;1256;96526;-70
2024/01/19 04:49:35;;;;;;;25.10;13.50;;;;;;;-1.05;78.52;98327.86;105883;1264;96583;-70
2024/01/19 04:52:02;;;;;;;23.40;11.50;;;;;;;-1.06;78.40;98334.15;105724;1259;96645;-70
2024/01/19 04:54:28;;;;;;;;;;;;;;;-1.08;78.47;98335.45;105757;1254;96578;-71
2024/01/19 04:56:55;;;;;;;25.20;12.70;;;;;;;-1.14;78.31;98334.98;106055;1257;96692;-70
2024/01/19 04:59:21;;;;;;;29.50;12.00;;;;;;;-1.16;78.20;98336.76;106243;1256;96501;-70
2024/01/19 05:01:48;;;;;;;24.30;11.80;;;;;;;-1.16;78.35;98338.68;105531;1258;96605;-70
2024/01/19 05:04:14;;;;;;;28.40;13.50;;;;;;;-1.16;78.40;98344.09;105663;1251;96660;-70
2024/01/19 05:06:42;;;;;;;26.40;13.10;;;;;;;-1.19;78.44;98347.67;105438;1264;96721;-71
2024/01/19 05:09:09;;;;;;;22.50;11.50;;;;;;;-1.21;78.56;98354.67;105553;1261;96593;-72
2024/01/19 05:11:36;;;;;;;25.20;12.00;;;;;;;-1.22;78.38;98352.45;105941;1264;96611;-71
2024/01/19 05:14:05;;;;;;;20.30;11.90;;;;;;;-1.23;78.48;98345.35;105517;1251;96584;-69
2024/01/19 05:16:31;;;;;;;25.10;11.70;;;;;;;-1.21;78.49;98345.48;105625;1258;96596;-71
2024/01/19 05:18:58;;;;;;;24.10;11.00;;;;;;;-1.20;78.44;98355.35;105770;1254;97934;-70
2024/01/19 05:21:24;;;;;;;22.70;12.60;;;;;;;-1.22;78.49;98355.59;105678;1255;97385;-69
2024/01/19 05:23:51;;;;;;;20.90;11.30;;;;;;;-1.21;78.61;98358.88;105537;1265;97522;-70
2024/01/19 05:26:17;;;;;;;23.70;11.20;;;;;;;-1.21;78.60;98348.76;105999;1264;96530;-69
2024/01/19 05:28:43;;;;;;;30.50;13.90;;;;;;;-1.21;78.75;98351.56;105840;1255;97160;-70
2024/01/19 05:31:10;;;;;;;44.00;18.10;;;;;;;-1.21;78.78;98358.52;105623;1265;96607;-70
2024/01/19 05:33:38;;;;;;;32.50;13.60;;;;;;;-1.20;78.59;98364.40;105825;1265;96612;-70
2024/01/19 05:36:06;;;;;;;24.40;12.80;;;;;;;-1.16;78.60;98372.63;105613;1264;96615;-70
2024/01/19 05:38:33;;;;;;;25.70;11.70;;;;;;;-1.16;78.45;98386.38;105852;1257;109439;-70
2024/01/19 05:41:01;;;;;;;28.90;13.80;;;;;;;-1.18;78.47;98397.05;105724;1257;96597;-71
2024/01/19 05:43:28;;;;;;;25.40;11.90;;;;;;;-1.19;78.51;98403.68;105714;1257;97489;-70
2024/01/19 05:45:54;;;;;;;;;;;;;;;-1.17;78.54;98405.89;105754;1257;96551;-69
2024/01/19 05:48:22;;;;;;;21.70;10.30;;;;;;;-1.18;78.55;98406.80;105946;1257;96609;-70
2024/01/19 05:50:49;;;;;;;30.70;13.50;;;;;;;-1.18;78.52;98411.83;105825;1256;96586;-68
2024/01/19 05:53:15;;;;;;;25.70;12.30;;;;;;;-1.18;78.36;98415.66;105898;1257;96626;-70
2024/01/19 05:55:42;;;;;;;24.00;12.60;;;;;;;-1.17;78.47;98424.67;105569;1257;96673;-70
2024/01/19 05:58:09;;;;;;;24.90;11.00;;;;;;;-1.18;78.38;98426.64;105875;1255;97373;-70
2024/01/19 06:00:35;;;;;;;30.60;13.30;;;;;;;-1.21;78.49;98430.18;108714;1254;94858;-71
2024/01/19 06:03:02;;;;;;;27.30;11.80;;;;;;;-1.20;78.36;98432.77;108704;1251;94696;-71
2024/01/19 06:05:28;;;;;;;26.60;13.70;;;;;;;-1.20;78.38;98433.30;105895;1257;96581;-71
2024/01/19 06:07:55;;;;;;;25.90;12.40;;;;;;;-1.22;78.64;98439.98;108821;1251;95320;-71
2024/01/19 06:10:22;;;;;;;31.00;12.90;;;;;;;-1.22;78.42;98448.50;106343;1257;108303;-70
2024/01/19 06:12:48;;;;;;;22.50;11.20;;;;;;;-1.22;78.47;98459.98;105417;1252;96651;-77
2024/01/19 06:15:15;;;;;;;;;;;;;;;-1.18;78.55;98470.30;105773;1264;97962;-76
2024/01/19 06:17:41;;;;;;;23.70;10.50;;;;;;;-1.15;78.69;98471.77;108206;1254;96493;-76
2024/01/19 06:20:08;;;;;;;;;;;;;;;-1.12;78.62;98480.38;107453;1256;96654;-77
2024/01/19 06:22:41;;;;;;;22.70;11.30;;;;;;;-1.10;78.55;98492.30;106393;1251;96568;-76
2024/01/19 06:25:07;;;;;;;29.70;14.60;;;;;;;-1.09;78.43;98507.40;108691;1254;108010;-76
2024/01/19 06:27:34;;;;;;;;;;;;;;;-1.09;78.49;98513.85;108781;1251;94521;-76
2024/01/19 06:30:00;;;;;;;32.10;15.00;;;;;;;-1.10;78.59;98509.16;108794;1251;94600;-75
2024/01/19 06:32:29;;;;;;;22.70;12.00;;;;;;;-1.08;78.51;98513.83;108629;1254;95095;-76
2024/01/19 06:35:32;;;;;;;31.20;15.30;;;;;;;-1.06;78.55;98510.60;102891;1288;636872;-76
2024/01/19 06:37:59;;;;;;;27.30;12.80;;;;;;;-1.09;78.51;98512.29;104658;1267;94600;-75
2024/01/19 06:40:25;;;;;;;;;;;;;;;-1.12;78.31;98515.67;105240;1269;94338;-76
2024/01/19 06:42:52;;;;;;;25.40;12.30;;;;;;;-1.14;78.58;98516.44;104817;1265;94370;-78
2024/01/19 06:45:20;;;;;;;25.50;12.90;;;;;;;-1.15;78.74;98516.65;105095;1264;94866;-76
2024/01/19 06:47:47;;;;;;;25.90;12.30;;;;;;;-1.14;78.46;98521.50;104744;1264;184276;-76
2024/01/19 06:50:16;;;;;;;27.70;13.30;;;;;;;-1.17;78.48;98527.48;105026;1256;94256;-77
2024/01/19 06:52:43;;;;;;;23.40;12.80;;;;;;;-1.22;78.48;98524.00;105332;1257;105376;-78
2024/01/19 06:55:10;;;;;;;31.00;14.70;;;;;;;-1.26;78.56;98533.89;105359;1260;94642;-76
2024/01/19 06:57:36;;;;;;;25.40;12.60;;;;;;;-1.29;78.63;98535.73;105362;1262;94351;-76
2024/01/19 07:00:05;;;;;;;29.10;13.80;;;;;;;-1.31;78.63;98535.98;105312;1257;95330;-76
2024/01/19 07:02:32;;;;;;;33.10;15.00;;;;;;;-1.33;78.54;98539.34;105601;1260;96181;-77
2024/01/19 07:04:59;;;;;;;34.90;15.10;;;;;;;-1.33;78.58;98540.23;104980;1256;95313;-77
2024/01/19 07:07:26;;;;;;;31.30;13.50;;;;;;;-1.35;78.38;98539.58;105115;1260;95343;-75
2024/01/19 07:09:53;;;;;;;;;;;;;;;-1.37;78.55;98543.64;105002;1262;96236;-77
2024/01/19 07:12:20;;;;;;;27.30;13.10;;;;;;;-1.38;78.58;98552.52;105154;1260;95269;-76
2024/01/19 07:14:47;;;;;;;27.10;14.10;;;;;;;-1.37;78.62;98559.80;105085;1258;108306;-75
2024/01/19 07:17:13;;;;;;;26.90;13.30;;;;;;;-1.36;78.51;98559.78;105333;1258;95236;-76
2024/01/19 07:19:45;;;;;;;28.30;13.10;;;;;;;-1.37;78.58;98560.16;105295;1262;107645;-77
2024/01/19 07:22:12;;;;;;;31.10;14.60;;;;;;;-1.37;78.63;98562.93;105055;1262;95183;-76
2024/01/19 07:24:38;;;;;;;;;;;;;;;-1.35;78.47;98566.36;105136;1257;95229;-76
2024/01/19 07:27:05;;;;;;;26.10;11.70;;;;;;;-1.37;78.49;98566.94;105382;1253;95331;-76
2024/01/19 07:29:32;;;;;;;22.20;10.60;;;;;;;-1.36;78.53;98568.31;105021;1258;95258;-77
2024/01/19 07:33:52;;;;;;;29.80;15.50;;;;;;;-1.28;78.58;98573.27;103061;1287;651224;-76
2024/01/19 07:36:19;;;;;;;28.60;13.60;;;;;;;-1.31;78.59;98580.67;104609;1273;94345;-77
2024/01/19 07:38:46;;;;;;;36.30;16.30;;;;;;;-1.31;78.38;98581.02;104637;1269;94309;-75
2024/01/19 07:41:12;;;;;;;;;;;;;;;-1.30;78.71;98590.89;104652;1272;94316;-77
2024/01/19 07:43:41;;;;;;;36.50;15.60;;;;;;;-1.29;78.54;98594.53;104907;1280;94446;-76
2024/01/19 07:46:08;;;;;;;29.60;14.90;;;;;;;-1.33;78.68;98596.57;105180;1264;135000;-76
2024/01/19 07:48:38;;;;;;;34.80;15.40;;;;;;;-1.35;78.71;98598.36;105092;1274;94302;-76
2024/01/19 07:51:05;;;;;;;41.60;17.70;;;;;;;-1.36;78.61;98596.99;105236;1257;106828;-76
2024/01/19 07:53:32;;;;;;;35.30;16.80;;;;;;;-1.37;78.63;98596.33;105091;1275;94388;-77
2024/01/19 07:55:59;;;;;;;36.40;16.20;;;;;;;-1.34;78.48;98603.56;105041;1257;95176;-76
2024/01/19 07:58:26;;;;;;;45.60;19.50;;;;;;;-1.33;78.52;98609.64;104990;1263;95580;-76
2024/01/19 08:00:54;;;;;;;32.80;16.90;;;;;;;-1.32;78.63;98612.38;105443;1257;95175;-76
2024/01/19 08:03:21;;;;;;;29.90;15.60;;;;;;;-1.31;78.72;98614.42;105276;1258;95428;-75
2024/01/19 08:05:48;;;;;;;32.10;14.20;;;;;;;-1.33;78.48;98611.55;105376;1263;96266;-77
2024/01/19 08:08:19;;;;;;;34.50;15.70;;;;;;;-1.35;78.51;98608.48;105012;1260;106309;-76
2024/01/19 08:10:46;;;;;;;27.90;13.30;;;;;;;-1.34;78.50;98608.61;105522;1254;96215;-76
2024/01/19 08:13:14;;;;;;;;;;;;;;;-1.35;78.43;98608.46;105635;1259;95227;-78
2024/01/19 08:15:40;;;;;;;23.40;13.20;;;;;;;-1.41;78.42;98604.48;105350;1255;95736;-76
2024/01/19 08:18:07;;;;;;;;;;;;;;;-1.46;78.18;98607.45;105501;1254;95329;-77
2024/01/19 08:20:33;;;;;;;32.00;12.70;;;;;;;-1.50;78.65;98610.30;105888;1260;95263;-77
2024/01/19 08:23:02;;;;;;;32.40;15.60;;;;;;;-1.50;78.54;98602.83;105661;1254;95663;-76
2024/01/19 08:25:28;;;;;;;34.50;14.70;;;;;;;-1.50;78.38;98607.17;105324;1258;109095;-76
2024/01/19 08:27:55;;;;;;;51.30;17.10;;;;;;;-1.52;78.36;98608.46;105515;1256;95223;-77
2024/01/19 08:30:22;;;;;;;33.50;14.20;;;;;;;-1.51;78.41;98616.78;105436;1260;95618;-76
2024/01/19 08:32:49;;;;;;;29.20;11.50;;;;;;;-1.46;78.50;98616.11;105693;1267;95322;-77
2024/01/19 08:35:18;;;;;;;58.70;20.00;;;;;;;-1.45;78.34;98612.80;105430;1259;95316;-78
2024/01/19 08:37:44;;;;;;;;;;;;;;;-1.41;78.66;98615.27;105147;1262;95338;-77
2024/01/19 08:40:12;;;;;;;57.50;20.80;;;;;;;-1.37;78.48;98614.09;105524;1260;95422;-77
2024/01/19 08:42:39;;;;;;;35.10;14.10;;;;;;;-1.32;78.53;98619.16;105880;1256;95389;-77
2024/01/19 08:45:09;;;;;;;35.20;17.30;;;;;;;-1.29;78.33;98619.41;105594;1267;95330;-76
2024/01/19 08:47:37;;;;;;;41.10;17.70;;;;;;;-1.26;78.32;98621.73;105925;1254;95205;-77
2024/01/19 08:50:07;;;;;;;56.90;20.50;;;;;;;-1.23;78.43;98625.98;105573;1257;108642;-76
2024/01/19 08:52:34;;;;;;;86.90;31.70;;;;;;;-1.23;78.36;98623.91;105718;1263;95195;-76
2024/01/19 08:55:01;;;;;;;42.10;17.00;;;;;;;-1.21;78.31;98631.85;105675;1261;95239;-77
2024/01/19 08:57:27;;;;;;;;;;;;;;;-1.22;78.12;98641.64;105670;1254;95281;-77
2024/01/19 08:59:54;;;;;;;51.80;17.80;;;;;;;-1.24;78.38;98650.05;105617;1258;95253;-79
2024/01/19 09:02:22;;;;;;;45.80;19.90;;;;;;;-1.26;78.10;98654.64;105994;1256;95277;-76
2024/01/19 09:04:52;;;;;;;51.60;20.40;;;;;;;-1.30;77.83;98661.53;105606;1257;96826;-76
2024/01/19 09:07:19;;;;;;;38.50;17.40;;;;;;;-1.32;77.88;98661.45;105471;1268;95274;-76
2024/01/19 09:09:47;;;;;;;39.70;17.50;;;;;;;-1.34;77.99;98660.98;105937;1267;95166;-77
2024/01/19 09:12:14;;;;;;;36.60;16.40;;;;;;;-1.33;78.00;98663.19;105873;1255;96175;-77
2024/01/19 09:14:41;;;;;;;;;;;;;;;-1.32;77.93;98664.93;105722;1260;95332;-77
2024/01/19 09:17:07;;;;;;;52.20;20.50;;;;;;;-1.29;78.22;98673.52;105886;1256;95297;-77
2024/01/19 09:19:34;;;;;;;46.90;18.40;;;;;;;-1.24;78.15;98675.98;105520;1267;95748;-76
2024/01/19 09:22:05;;;;;;;39.90;16.40;;;;;;;-1.22;78.11;98687.73;105552;1259;95225;-75
2024/01/19 09:24:33;;;;;;;31.90;14.80;;;;;;;-1.26;77.98;98687.67;105857;1256;108502;-77
2024/01/19 09:27:04;;;;;;;30.00;14.20;;;;;;;-1.27;77.64;98698.52;105266;1266;95489;-77
2024/01/19 09:29:30;;;;;;;46.10;19.00;;;;;;;-1.27;78.13;98710.85;105618;1267;96274;-76
2024/01/19 09:31:57;;;;;;;34.30;14.60;;;;;;;-1.26;78.05;98718.30;105170;1267;95882;-76
2024/01/19 09:34:24;;;;;;;36.60;14.90;;;;;;;-1.25;77.91;98721.08;105786;1256;95326;-77
2024/01/19 09:36:53;;;;;;;;;;;;;;;-1.25;78.00;98718.63;105738;1255;95268;-77
2024/01/19 09:39:22;;;;;;;39.70;16.50;;;;;;;-1.28;78.01;98726.36;105344;1267;95398;-76
2024/01/19 09:42:03;;;;;;;35.90;14.30;;;;;;;-1.30;78.21;98732.17;105166;1258;107544;-77
2024/01/19 09:44:39;;;;;;;31.60;13.30;;;;;;;-1.31;77.96;98732.39;105307;1255;95339;-76
2024/01/19 09:47:14;;;;;;;32.80;15.30;;;;;;;-1.34;78.05;98735.60;105690;1266;96574;-77
2024/01/19 09:50:20;;;;;;;31.80;13.70;;;;;;;-1.35;77.97;98745.38;105505;1260;108580;-78
2024/01/19 09:52:58;;;;;;;80.70;27.30;;;;;;;-1.35;78.17;98748.82;106810;1258;96296;-77
2024/01/19 09:55:29;;;;;;;78.80;23.50;;;;;;;-1.38;78.20;98758.16;105233;1258;106623;-77
2024/01/19 09:58:00;;;;;;;54.50;18.70;;;;;;;-1.42;77.96;98757.73;107766;1257;95237;-77
2024/01/19 10:00:28;;;;;;;42.60;17.40;;;;;;;-1.44;77.95;98760.58;105459;1256;95836;-77
2024/01/19 10:02:55;;;;;;;40.00;17.40;;;;;;;-1.44;77.81;98754.33;105431;1268;108529;-75
2024/01/19 10:05:27;;;;;;;36.60;16.10;;;;;;;-1.42;78.14;98753.39;105535;1267;95769;-77
2024/01/19 10:07:57;;;;;;;35.30;15.90;;;;;;;-1.41;77.89;98759.09;105795;1255;96121;-77
2024/01/19 10:10:25;;;;;;;50.00;19.60;;;;;;;-1.42;77.98;98769.92;105463;1257;95319;-77
2024/01/19 10:12:52;;;;;;;41.40;16.80;;;;;;;-1.43;77.82;98778.49;105531;1259;95183;-77
2024/01/19 10:15:24;;;;;;;38.70;15.80;;;;;;;-1.44;77.90;98781.11;105526;1254;108642;-76
2024/01/19 10:17:51;;;;;;;;;;;;;;;-1.44;78.04;98780.23;105245;1270;95307;-76
2024/01/19 10:20:19;;;;;;;41.70;17.00;;;;;;;-1.44;77.98;98783.55;105466;1267;95313;-76
2024/01/19 10:22:45;;;;;;;37.40;16.30;;;;;;;-1.45;77.96;98786.17;105463;1255;95351;-78
2024/01/19 10:25:14;;;;;;;33.20;14.80;;;;;;;-1.48;77.55;98786.27;105490;1267;95794;-77
2024/01/19 10:27:47;;;;;;;38.40;17.00;;;;;;;-1.51;77.69;98787.73;105561;1258;108460;-77
2024/01/19 10:30:21;;;;;;;37.20;17.90;;;;;;;-1.52;77.86;98784.61;105756;1254;95214;-75
2024/01/19 10:32:50;;;;;;;35.30;15.50;;;;;;;-1.54;77.94;98786.42;105853;1257;108162;-76
2024/01/19 10:35:21;;;;;;;31.00;13.20;;;;;;;-1.54;77.77;98790.24;105568;1257;95172;-77
2024/01/19 10:37:49;;;;;;;34.50;16.50;;;;;;;-1.51;77.86;98787.73;105724;1267;95164;-77
2024/01/19 10:40:28;;;;;;;31.00;13.30;;;;;;;-1.46;78.06;98793.35;105374;1257;108188;-77
2024/01/19 10:42:56;;;;;;;31.60;13.10;;;;;;;-1.45;77.91;98794.54;105481;1257;95256;-78
2024/01/19 10:45:34;;;;;;;31.30;13.70;;;;;;;-1.42;77.87;98802.79;105340;1267;95208;-77
2024/01/19 10:48:04;;;;;;;29.90;12.90;;;;;;;-1.43;77.54;98803.33;105226;1266;95325;-76
2024/01/19 10:50:31;;;;;;;30.60;15.20;;;;;;;-1.44;77.78;98804.25;105798;1253;95240;-76
2024/01/19 10:53:00;;;;;;;27.90;12.20;;;;;;;-1.44;77.69;98804.61;105654;1257;96179;-77
2024/01/19 10:55:31;;;;;;;26.00;12.60;;;;;;;-1.40;77.73;98803.95;105716;1264;95416;-76
2024/01/19 10:58:04;;;;;;;33.00;15.90;;;;;;;-1.37;77.74;98799.00;105152;1257;107589;-76
2024/01/19 11:03:37;;;;;;;39.90;16.50;;;;;;;-1.35;77.66;98805.90;102184;1295;635738;-77
2024/01/19 11:06:05;;;;;;;38.90;14.80;;;;;;;-1.44;77.39;98801.09;105028;1265;94339;-77
2024/01/19 11:08:37;;;;;;;31.50;15.30;;;;;;;-1.45;77.48;98796.45;105316;1261;95241;-76
2024/01/19 11:11:06;;;;;;;35.60;19.10;;;;;;;-1.45;77.51;98801.14;105243;1263;106641;-77
2024/01/19 11:13:40;;;;;;;31.10;14.40;;;;;;;-1.44;77.54;98791.02;105332;1263;95595;-76
2024/01/19 11:16:14;;;;;;;33.90;14.40;;;;;;;-1.42;77.60;98789.23;104937;1263;203486;-76
2024/01/19 11:18:45;;;;;;;37.40;17.20;;;;;;;-1.39;77.48;98795.23;105332;1259;94315;-77
2024/01/19 11:21:13;;;;;;;35.40;17.00;;;;;;;-1.36;77.73;98795.31;105713;1256;94225;-75
2024/01/19 11:23:43;;;;;;;35.20;16.00;;;;;;;-1.34;77.56;98792.64;105718;1253;107295;-76
2024/01/19 11:26:38;;;;;;;40.50;20.20;;;;;;;-1.32;77.63;98795.20;105501;1259;94761;-77